sensor_id;sensor_type;location;lat;lon;timestamp;P1;durP1;ratioP1;P2;durP2;ratioP2
81306;SDS011;70775;50.846;3.224;2023-08-24T00:01:36;10.55;;;5.95;;
81306;SDS011;70775;50.846;3.224;2023-08-24T00:04:01;14.18;;;7.20;;
81306;SDS011;70775;50.846;3.224;2023-08-24T00:06:27;10.50;;;6.60;;
81306;SDS011;70775;50.846;3.224;2023-08-24T00:08:53;14.30;;;6.93;;
81306;SDS011;70775;50.846;3.224;2023-08-24T00:11:19;9.38;;;5.93;;
81306;SDS011;70775;50.846;3.224;2023-08-24T00:13:45;12.40;;;6.88;;
81306;SDS011;70775;50.846;3.224;2023-08-24T00:16:17;10.15;;;6.88;;
81306;SDS011;70775;50.846;3.224;2023-08-24T00:18:44;11.07;;;6.43;;
81306;SDS011;70775;50.846;3.224;2023-08-24T00:21:10;11.32;;;6.85;;
81306;SDS011;70775;50.846;3.224;2023-08-24T00:23:38;11.57;;;7.78;;
81306;SDS011;70775;50.846;3.224;2023-08-24T00:26:03;11.35;;;6.40;;
81306;SDS011;70775;50.846;3.224;2023-08-24T00:28:29;10.77;;;6.45;;
81306;SDS011;70775;50.846;3.224;2023-08-24T00:30:55;10.63;;;6.97;;
81306;SDS011;70775;50.846;3.224;2023-08-24T00:33:20;11.50;;;6.70;;
81306;SDS011;70775;50.846;3.224;2023-08-24T00:35:46;11.82;;;6.70;;
81306;SDS011;70775;50.846;3.224;2023-08-24T00:38:11;13.38;;;6.55;;
81306;SDS011;70775;50.846;3.224;2023-08-24T00:40:37;12.25;;;7.35;;
81306;SDS011;70775;50.846;3.224;2023-08-24T00:43:04;10.93;;;7.25;;
81306;SDS011;70775;50.846;3.224;2023-08-24T00:45:30;10.43;;;6.97;;
81306;SDS011;70775;50.846;3.224;2023-08-24T00:47:58;14.77;;;7.03;;
81306;SDS011;70775;50.846;3.224;2023-08-24T00:50:24;11.15;;;6.82;;
81306;SDS011;70775;50.846;3.224;2023-08-24T00:52:49;11.48;;;7.40;;
81306;SDS011;70775;50.846;3.224;2023-08-24T00:55:15;13.10;;;7.78;;
81306;SDS011;70775;50.846;3.224;2023-08-24T00:57:42;11.52;;;7.40;;
81306;SDS011;70775;50.846;3.224;2023-08-24T01:00:08;13.07;;;7.95;;
81306;SDS011;70775;50.846;3.224;2023-08-24T01:02:37;11.27;;;7.38;;
81306;SDS011;70775;50.846;3.224;2023-08-24T01:05:03;13.18;;;7.80;;
81306;SDS011;70775;50.846;3.224;2023-08-24T01:07:30;14.07;;;8.45;;
81306;SDS011;70775;50.846;3.224;2023-08-24T01:09:57;12.35;;;8.27;;
81306;SDS011;70775;50.846;3.224;2023-08-24T01:15:25;18.48;;;9.75;;
81306;SDS011;70775;50.846;3.224;2023-08-24T01:18:13;16.25;;;10.10;;
81306;SDS011;70775;50.846;3.224;2023-08-24T01:20:42;16.35;;;10.23;;
81306;SDS011;70775;50.846;3.224;2023-08-24T01:26:09;14.38;;;9.85;;
81306;SDS011;70775;50.846;3.224;2023-08-24T01:28:36;18.30;;;11.80;;
81306;SDS011;70775;50.846;3.224;2023-08-24T01:31:03;16.92;;;10.85;;
81306;SDS011;70775;50.846;3.224;2023-08-24T01:33:39;15.52;;;11.35;;
81306;SDS011;70775;50.846;3.224;2023-08-24T01:36:05;16.52;;;11.40;;
81306;SDS011;70775;50.846;3.224;2023-08-24T01:38:31;19.17;;;12.02;;
81306;SDS011;70775;50.846;3.224;2023-08-24T01:41:20;16.38;;;11.77;;
81306;SDS011;70775;50.846;3.224;2023-08-24T01:43:51;15.77;;;12.07;;
81306;SDS011;70775;50.846;3.224;2023-08-24T01:46:19;17.55;;;13.20;;
81306;SDS011;70775;50.846;3.224;2023-08-24T01:55:00;18.70;;;12.55;;
81306;SDS011;70775;50.846;3.224;2023-08-24T02:00:33;20.85;;;13.32;;
81306;SDS011;70775;50.846;3.224;2023-08-24T02:02:58;22.67;;;13.43;;
81306;SDS011;70775;50.846;3.224;2023-08-24T02:05:25;22.02;;;14.27;;
81306;SDS011;70775;50.846;3.224;2023-08-24T02:07:52;19.08;;;13.18;;
81306;SDS011;70775;50.846;3.224;2023-08-24T02:10:19;23.42;;;13.15;;
81306;SDS011;70775;50.846;3.224;2023-08-24T02:12:49;18.83;;;13.10;;
81306;SDS011;70775;50.846;3.224;2023-08-24T02:15:15;20.83;;;13.82;;
81306;SDS011;70775;50.846;3.224;2023-08-24T02:17:41;23.63;;;12.77;;
81306;SDS011;70775;50.846;3.224;2023-08-24T02:20:06;17.25;;;12.13;;
81306;SDS011;70775;50.846;3.224;2023-08-24T02:22:36;21.98;;;13.88;;
81306;SDS011;70775;50.846;3.224;2023-08-24T02:25:02;21.50;;;14.07;;
81306;SDS011;70775;50.846;3.224;2023-08-24T02:27:30;21.17;;;12.48;;
81306;SDS011;70775;50.846;3.224;2023-08-24T02:29:56;17.83;;;13.13;;
81306;SDS011;70775;50.846;3.224;2023-08-24T02:32:21;18.42;;;12.95;;
81306;SDS011;70775;50.846;3.224;2023-08-24T02:34:47;15.05;;;12.02;;
81306;SDS011;70775;50.846;3.224;2023-08-24T02:37:13;20.58;;;13.18;;
81306;SDS011;70775;50.846;3.224;2023-08-24T02:39:38;18.05;;;12.20;;
81306;SDS011;70775;50.846;3.224;2023-08-24T02:42:04;18.77;;;12.75;;
81306;SDS011;70775;50.846;3.224;2023-08-24T02:44:30;15.95;;;12.48;;
81306;SDS011;70775;50.846;3.224;2023-08-24T02:46:56;19.38;;;13.30;;
81306;SDS011;70775;50.846;3.224;2023-08-24T02:49:22;18.67;;;12.85;;
81306;SDS011;70775;50.846;3.224;2023-08-24T02:51:48;19.85;;;12.73;;
81306;SDS011;70775;50.846;3.224;2023-08-24T02:54:14;17.75;;;12.15;;
81306;SDS011;70775;50.846;3.224;2023-08-24T02:59:24;19.35;;;12.73;;
81306;SDS011;70775;50.846;3.224;2023-08-24T03:01:49;19.30;;;13.50;;
81306;SDS011;70775;50.846;3.224;2023-08-24T03:04:17;18.00;;;13.10;;
81306;SDS011;70775;50.846;3.224;2023-08-24T03:13:16;20.80;;;11.88;;
81306;SDS011;70775;50.846;3.224;2023-08-24T03:15:41;18.48;;;12.88;;
81306;SDS011;70775;50.846;3.224;2023-08-24T03:18:07;18.45;;;12.57;;
81306;SDS011;70775;50.846;3.224;2023-08-24T03:20:36;16.63;;;12.23;;
81306;SDS011;70775;50.846;3.224;2023-08-24T03:23:02;15.23;;;12.68;;
81306;SDS011;70775;50.846;3.224;2023-08-24T03:25:28;18.75;;;12.68;;
81306;SDS011;70775;50.846;3.224;2023-08-24T03:27:54;17.48;;;12.68;;
81306;SDS011;70775;50.846;3.224;2023-08-24T03:30:20;17.98;;;11.95;;
81306;SDS011;70775;50.846;3.224;2023-08-24T03:32:47;18.40;;;12.93;;
81306;SDS011;70775;50.846;3.224;2023-08-24T03:35:13;18.63;;;12.85;;
81306;SDS011;70775;50.846;3.224;2023-08-24T03:37:40;18.90;;;13.23;;
81306;SDS011;70775;50.846;3.224;2023-08-24T03:40:05;18.23;;;12.55;;
81306;SDS011;70775;50.846;3.224;2023-08-24T03:42:31;17.65;;;12.75;;
81306;SDS011;70775;50.846;3.224;2023-08-24T03:44:58;18.23;;;13.48;;
81306;SDS011;70775;50.846;3.224;2023-08-24T03:47:25;17.30;;;12.82;;
81306;SDS011;70775;50.846;3.224;2023-08-24T03:49:50;19.58;;;13.60;;
81306;SDS011;70775;50.846;3.224;2023-08-24T03:52:16;19.50;;;12.15;;
81306;SDS011;70775;50.846;3.224;2023-08-24T03:54:41;21.00;;;13.07;;
81306;SDS011;70775;50.846;3.224;2023-08-24T04:00:05;18.27;;;13.02;;
81306;SDS011;70775;50.846;3.224;2023-08-24T04:05:04;19.20;;;12.90;;
81306;SDS011;70775;50.846;3.224;2023-08-24T04:07:29;20.27;;;13.60;;
81306;SDS011;70775;50.846;3.224;2023-08-24T04:09:56;18.40;;;14.57;;
81306;SDS011;70775;50.846;3.224;2023-08-24T04:12:28;19.70;;;14.95;;
81306;SDS011;70775;50.846;3.224;2023-08-24T04:14:55;19.17;;;14.07;;
81306;SDS011;70775;50.846;3.224;2023-08-24T04:17:22;19.15;;;13.77;;
81306;SDS011;70775;50.846;3.224;2023-08-24T04:19:48;20.80;;;14.05;;
81306;SDS011;70775;50.846;3.224;2023-08-24T04:22:14;19.92;;;13.80;;
81306;SDS011;70775;50.846;3.224;2023-08-24T04:24:39;24.38;;;15.48;;
81306;SDS011;70775;50.846;3.224;2023-08-24T04:27:05;22.77;;;15.18;;
81306;SDS011;70775;50.846;3.224;2023-08-24T04:29:31;20.08;;;14.35;;
81306;SDS011;70775;50.846;3.224;2023-08-24T04:31:57;20.73;;;15.13;;
81306;SDS011;70775;50.846;3.224;2023-08-24T04:34:23;18.02;;;13.77;;
81306;SDS011;70775;50.846;3.224;2023-08-24T04:36:48;22.67;;;14.32;;
81306;SDS011;70775;50.846;3.224;2023-08-24T04:39:14;20.70;;;15.25;;
81306;SDS011;70775;50.846;3.224;2023-08-24T04:41:40;22.00;;;14.40;;
81306;SDS011;70775;50.846;3.224;2023-08-24T04:44:06;18.17;;;14.20;;
81306;SDS011;70775;50.846;3.224;2023-08-24T04:46:33;19.58;;;14.95;;
81306;SDS011;70775;50.846;3.224;2023-08-24T04:48:58;19.67;;;15.32;;
81306;SDS011;70775;50.846;3.224;2023-08-24T04:51:24;21.02;;;14.70;;
81306;SDS011;70775;50.846;3.224;2023-08-24T04:53:52;19.75;;;13.82;;
81306;SDS011;70775;50.846;3.224;2023-08-24T04:56:18;17.23;;;13.02;;
81306;SDS011;70775;50.846;3.224;2023-08-24T04:58:55;20.23;;;13.88;;
81306;SDS011;70775;50.846;3.224;2023-08-24T05:01:25;22.63;;;15.38;;
81306;SDS011;70775;50.846;3.224;2023-08-24T05:03:53;19.30;;;14.98;;
81306;SDS011;70775;50.846;3.224;2023-08-24T05:06:19;23.10;;;15.07;;
81306;SDS011;70775;50.846;3.224;2023-08-24T05:08:48;19.40;;;15.15;;
81306;SDS011;70775;50.846;3.224;2023-08-24T05:11:14;21.25;;;14.90;;
81306;SDS011;70775;50.846;3.224;2023-08-24T05:13:42;24.65;;;15.82;;
81306;SDS011;70775;50.846;3.224;2023-08-24T05:16:11;17.33;;;14.40;;
81306;SDS011;70775;50.846;3.224;2023-08-24T05:18:37;20.27;;;15.05;;
81306;SDS011;70775;50.846;3.224;2023-08-24T05:21:03;20.95;;;13.90;;
81306;SDS011;70775;50.846;3.224;2023-08-24T05:23:30;24.00;;;14.43;;
81306;SDS011;70775;50.846;3.224;2023-08-24T05:25:59;18.23;;;13.68;;
81306;SDS011;70775;50.846;3.224;2023-08-24T05:28:27;22.13;;;14.43;;
81306;SDS011;70775;50.846;3.224;2023-08-24T05:30:55;21.90;;;13.82;;
81306;SDS011;70775;50.846;3.224;2023-08-24T05:33:22;21.20;;;13.90;;
81306;SDS011;70775;50.846;3.224;2023-08-24T05:35:48;19.85;;;13.95;;
81306;SDS011;70775;50.846;3.224;2023-08-24T05:38:15;18.90;;;14.38;;
81306;SDS011;70775;50.846;3.224;2023-08-24T05:40:46;19.33;;;13.77;;
81306;SDS011;70775;50.846;3.224;2023-08-24T05:43:12;18.73;;;13.32;;
81306;SDS011;70775;50.846;3.224;2023-08-24T05:45:38;20.98;;;14.27;;
81306;SDS011;70775;50.846;3.224;2023-08-24T05:48:05;17.65;;;13.35;;
81306;SDS011;70775;50.846;3.224;2023-08-24T05:50:33;21.55;;;14.05;;
81306;SDS011;70775;50.846;3.224;2023-08-24T05:52:59;20.98;;;13.45;;
81306;SDS011;70775;50.846;3.224;2023-08-24T05:55:25;22.70;;;14.48;;
81306;SDS011;70775;50.846;3.224;2023-08-24T05:57:51;18.42;;;13.80;;
81306;SDS011;70775;50.846;3.224;2023-08-24T06:00:17;25.75;;;13.77;;
81306;SDS011;70775;50.846;3.224;2023-08-24T06:02:43;24.10;;;14.20;;
81306;SDS011;70775;50.846;3.224;2023-08-24T06:05:09;19.55;;;13.23;;
81306;SDS011;70775;50.846;3.224;2023-08-24T06:07:35;16.65;;;13.27;;
81306;SDS011;70775;50.846;3.224;2023-08-24T06:10:01;26.70;;;13.57;;
81306;SDS011;70775;50.846;3.224;2023-08-24T06:12:27;23.48;;;14.50;;
81306;SDS011;70775;50.846;3.224;2023-08-24T06:14:53;23.38;;;13.70;;
81306;SDS011;70775;50.846;3.224;2023-08-24T06:17:18;22.80;;;13.48;;
81306;SDS011;70775;50.846;3.224;2023-08-24T06:19:44;30.38;;;14.85;;
81306;SDS011;70775;50.846;3.224;2023-08-24T06:22:09;27.10;;;13.65;;
81306;SDS011;70775;50.846;3.224;2023-08-24T06:24:35;24.20;;;14.20;;
81306;SDS011;70775;50.846;3.224;2023-08-24T06:27:01;21.75;;;13.10;;
81306;SDS011;70775;50.846;3.224;2023-08-24T06:29:29;18.42;;;13.25;;
81306;SDS011;70775;50.846;3.224;2023-08-24T06:31:55;20.30;;;13.80;;
81306;SDS011;70775;50.846;3.224;2023-08-24T06:34:22;16.52;;;12.70;;
81306;SDS011;70775;50.846;3.224;2023-08-24T06:36:49;20.83;;;13.00;;
81306;SDS011;70775;50.846;3.224;2023-08-24T06:39:15;22.77;;;13.68;;
81306;SDS011;70775;50.846;3.224;2023-08-24T06:41:41;20.58;;;13.98;;
81306;SDS011;70775;50.846;3.224;2023-08-24T06:44:07;18.52;;;13.40;;
81306;SDS011;70775;50.846;3.224;2023-08-24T06:46:32;25.27;;;14.02;;
81306;SDS011;70775;50.846;3.224;2023-08-24T06:48:58;23.00;;;15.20;;
81306;SDS011;70775;50.846;3.224;2023-08-24T06:51:26;21.70;;;14.57;;
81306;SDS011;70775;50.846;3.224;2023-08-24T06:53:53;18.40;;;13.85;;
81306;SDS011;70775;50.846;3.224;2023-08-24T06:56:18;21.90;;;14.43;;
81306;SDS011;70775;50.846;3.224;2023-08-24T06:58:44;21.27;;;13.65;;
81306;SDS011;70775;50.846;3.224;2023-08-24T07:01:10;20.33;;;14.45;;
81306;SDS011;70775;50.846;3.224;2023-08-24T07:03:37;19.02;;;14.05;;
81306;SDS011;70775;50.846;3.224;2023-08-24T07:06:05;19.25;;;14.45;;
81306;SDS011;70775;50.846;3.224;2023-08-24T07:08:32;20.55;;;13.90;;
81306;SDS011;70775;50.846;3.224;2023-08-24T07:10:59;21.08;;;14.52;;
81306;SDS011;70775;50.846;3.224;2023-08-24T07:13:24;19.70;;;13.98;;
81306;SDS011;70775;50.846;3.224;2023-08-24T07:15:51;19.80;;;13.93;;
81306;SDS011;70775;50.846;3.224;2023-08-24T07:18:17;18.90;;;13.93;;
81306;SDS011;70775;50.846;3.224;2023-08-24T07:20:42;23.20;;;14.07;;
81306;SDS011;70775;50.846;3.224;2023-08-24T07:23:08;21.10;;;14.23;;
81306;SDS011;70775;50.846;3.224;2023-08-24T07:25:34;19.23;;;13.63;;
81306;SDS011;70775;50.846;3.224;2023-08-24T07:27:59;24.10;;;14.60;;
81306;SDS011;70775;50.846;3.224;2023-08-24T07:30:28;21.15;;;14.00;;
81306;SDS011;70775;50.846;3.224;2023-08-24T07:32:54;19.13;;;14.63;;
81306;SDS011;70775;50.846;3.224;2023-08-24T07:35:20;22.63;;;14.45;;
81306;SDS011;70775;50.846;3.224;2023-08-24T07:37:49;21.25;;;14.38;;
81306;SDS011;70775;50.846;3.224;2023-08-24T07:40:15;21.95;;;15.35;;
81306;SDS011;70775;50.846;3.224;2023-08-24T07:42:48;19.88;;;14.88;;
81306;SDS011;70775;50.846;3.224;2023-08-24T07:45:15;18.77;;;14.05;;
81306;SDS011;70775;50.846;3.224;2023-08-24T07:47:42;22.25;;;14.07;;
81306;SDS011;70775;50.846;3.224;2023-08-24T07:50:08;22.85;;;16.00;;
81306;SDS011;70775;50.846;3.224;2023-08-24T07:52:35;18.98;;;14.00;;
81306;SDS011;70775;50.846;3.224;2023-08-24T07:55:08;22.15;;;14.88;;
81306;SDS011;70775;50.846;3.224;2023-08-24T07:57:35;21.10;;;14.57;;
81306;SDS011;70775;50.846;3.224;2023-08-24T08:00:02;21.20;;;15.13;;
81306;SDS011;70775;50.846;3.224;2023-08-24T08:02:29;24.30;;;15.15;;
81306;SDS011;70775;50.846;3.224;2023-08-24T08:04:57;26.13;;;16.35;;
81306;SDS011;70775;50.846;3.224;2023-08-24T08:07:23;25.20;;;15.43;;
81306;SDS011;70775;50.846;3.224;2023-08-24T08:09:50;27.85;;;16.60;;
81306;SDS011;70775;50.846;3.224;2023-08-24T08:12:15;23.10;;;15.95;;
81306;SDS011;70775;50.846;3.224;2023-08-24T08:14:41;21.55;;;15.95;;
81306;SDS011;70775;50.846;3.224;2023-08-24T08:17:07;26.05;;;16.75;;
81306;SDS011;70775;50.846;3.224;2023-08-24T08:19:32;25.13;;;17.33;;
81306;SDS011;70775;50.846;3.224;2023-08-24T08:22:00;26.55;;;18.08;;
81306;SDS011;70775;50.846;3.224;2023-08-24T08:24:26;22.23;;;15.65;;
81306;SDS011;70775;50.846;3.224;2023-08-24T08:26:52;25.98;;;16.38;;
81306;SDS011;70775;50.846;3.224;2023-08-24T08:29:19;25.15;;;16.40;;
81306;SDS011;70775;50.846;3.224;2023-08-24T08:31:44;25.05;;;16.60;;
81306;SDS011;70775;50.846;3.224;2023-08-24T08:34:12;23.27;;;16.95;;
81306;SDS011;70775;50.846;3.224;2023-08-24T08:36:37;29.77;;;16.70;;
81306;SDS011;70775;50.846;3.224;2023-08-24T08:39:03;25.20;;;15.18;;
81306;SDS011;70775;50.846;3.224;2023-08-24T08:41:30;23.08;;;15.75;;
81306;SDS011;70775;50.846;3.224;2023-08-24T08:46:29;23.33;;;15.65;;
81306;SDS011;70775;50.846;3.224;2023-08-24T08:48:57;21.02;;;13.65;;
81306;SDS011;70775;50.846;3.224;2023-08-24T08:51:25;17.98;;;13.50;;
81306;SDS011;70775;50.846;3.224;2023-08-24T08:53:51;19.08;;;12.32;;
81306;SDS011;70775;50.846;3.224;2023-08-24T08:56:17;13.93;;;8.60;;
81306;SDS011;70775;50.846;3.224;2023-08-24T08:58:43;16.00;;;10.43;;
81306;SDS011;70775;50.846;3.224;2023-08-24T09:01:11;15.95;;;10.88;;
81306;SDS011;70775;50.846;3.224;2023-08-24T09:03:37;17.50;;;10.93;;
81306;SDS011;70775;50.846;3.224;2023-08-24T09:06:04;14.75;;;9.65;;
81306;SDS011;70775;50.846;3.224;2023-08-24T09:08:30;21.73;;;12.50;;
81306;SDS011;70775;50.846;3.224;2023-08-24T09:10:58;18.48;;;11.65;;
81306;SDS011;70775;50.846;3.224;2023-08-24T09:13:24;12.90;;;10.73;;
81306;SDS011;70775;50.846;3.224;2023-08-24T09:15:53;16.60;;;10.38;;
81306;SDS011;70775;50.846;3.224;2023-08-24T09:18:19;12.35;;;9.15;;
81306;SDS011;70775;50.846;3.224;2023-08-24T09:20:46;12.93;;;8.13;;
81306;SDS011;70775;50.846;3.224;2023-08-24T09:23:18;10.68;;;6.05;;
81306;SDS011;70775;50.846;3.224;2023-08-24T09:25:45;10.32;;;5.72;;
81306;SDS011;70775;50.846;3.224;2023-08-24T09:28:13;11.00;;;5.78;;
81306;SDS011;70775;50.846;3.224;2023-08-24T09:30:47;13.23;;;7.15;;
81306;SDS011;70775;50.846;3.224;2023-08-24T09:33:19;9.77;;;6.13;;
81306;SDS011;70775;50.846;3.224;2023-08-24T09:35:51;12.07;;;6.50;;
81306;SDS011;70775;50.846;3.224;2023-08-24T09:38:20;10.57;;;6.72;;
81306;SDS011;70775;50.846;3.224;2023-08-24T09:40:51;12.43;;;7.97;;
81306;SDS011;70775;50.846;3.224;2023-08-24T09:43:20;13.20;;;7.85;;
81306;SDS011;70775;50.846;3.224;2023-08-24T09:45:51;12.15;;;8.35;;
81306;SDS011;70775;50.846;3.224;2023-08-24T09:48:17;11.65;;;7.13;;
81306;SDS011;70775;50.846;3.224;2023-08-24T09:50:44;15.50;;;7.95;;
81306;SDS011;70775;50.846;3.224;2023-08-24T09:53:18;14.75;;;7.97;;
81306;SDS011;70775;50.846;3.224;2023-08-24T09:58:21;12.85;;;7.65;;
81306;SDS011;70775;50.846;3.224;2023-08-24T10:00:48;13.30;;;7.15;;
81306;SDS011;70775;50.846;3.224;2023-08-24T10:03:16;12.30;;;7.35;;
81306;SDS011;70775;50.846;3.224;2023-08-24T10:05:52;14.73;;;7.80;;
81306;SDS011;70775;50.846;3.224;2023-08-24T10:08:29;16.27;;;7.05;;
81306;SDS011;70775;50.846;3.224;2023-08-24T10:10:59;13.40;;;7.53;;
81306;SDS011;70775;50.846;3.224;2023-08-24T10:16:09;12.80;;;7.13;;
81306;SDS011;70775;50.846;3.224;2023-08-24T10:18:37;14.02;;;7.18;;
81306;SDS011;70775;50.846;3.224;2023-08-24T10:21:05;12.23;;;7.70;;
81306;SDS011;70775;50.846;3.224;2023-08-24T10:23:31;11.10;;;6.82;;
81306;SDS011;70775;50.846;3.224;2023-08-24T10:25:59;11.70;;;7.13;;
81306;SDS011;70775;50.846;3.224;2023-08-24T10:28:27;11.27;;;7.32;;
81306;SDS011;70775;50.846;3.224;2023-08-24T10:30:53;12.15;;;7.07;;
81306;SDS011;70775;50.846;3.224;2023-08-24T10:33:20;13.27;;;7.03;;
81306;SDS011;70775;50.846;3.224;2023-08-24T10:35:47;12.02;;;6.90;;
81306;SDS011;70775;50.846;3.224;2023-08-24T10:38:22;9.63;;;6.55;;
81306;SDS011;70775;50.846;3.224;2023-08-24T10:40:50;10.68;;;6.35;;
81306;SDS011;70775;50.846;3.224;2023-08-24T10:43:16;11.32;;;6.53;;
81306;SDS011;70775;50.846;3.224;2023-08-24T10:45:58;9.18;;;6.32;;
81306;SDS011;70775;50.846;3.224;2023-08-24T10:48:25;9.70;;;5.78;;
81306;SDS011;70775;50.846;3.224;2023-08-24T10:53:42;10.38;;;6.03;;
81306;SDS011;70775;50.846;3.224;2023-08-24T10:56:13;9.75;;;6.03;;
81306;SDS011;70775;50.846;3.224;2023-08-24T10:58:41;9.40;;;6.20;;
81306;SDS011;70775;50.846;3.224;2023-08-24T11:01:07;12.77;;;6.18;;
81306;SDS011;70775;50.846;3.224;2023-08-24T11:03:48;9.82;;;6.55;;
81306;SDS011;70775;50.846;3.224;2023-08-24T11:06:22;10.77;;;6.40;;
81306;SDS011;70775;50.846;3.224;2023-08-24T11:11:31;10.02;;;5.70;;
81306;SDS011;70775;50.846;3.224;2023-08-24T11:14:13;11.98;;;6.60;;
81306;SDS011;70775;50.846;3.224;2023-08-24T11:16:45;11.55;;;5.90;;
81306;SDS011;70775;50.846;3.224;2023-08-24T11:19:12;7.45;;;5.32;;
81306;SDS011;70775;50.846;3.224;2023-08-24T11:21:42;8.18;;;5.15;;
81306;SDS011;70775;50.846;3.224;2023-08-24T11:24:12;9.15;;;5.53;;
81306;SDS011;70775;50.846;3.224;2023-08-24T11:26:45;9.93;;;5.82;;
81306;SDS011;70775;50.846;3.224;2023-08-24T11:29:13;9.77;;;6.22;;
81306;SDS011;70775;50.846;3.224;2023-08-24T11:31:40;10.43;;;6.57;;
81306;SDS011;70775;50.846;3.224;2023-08-24T11:34:06;11.10;;;6.72;;
81306;SDS011;70775;50.846;3.224;2023-08-24T11:36:48;8.68;;;5.68;;
81306;SDS011;70775;50.846;3.224;2023-08-24T11:39:17;10.77;;;7.07;;
81306;SDS011;70775;50.846;3.224;2023-08-24T11:41:45;11.68;;;6.90;;
81306;SDS011;70775;50.846;3.224;2023-08-24T11:44:46;9.98;;;6.47;;
81306;SDS011;70775;50.846;3.224;2023-08-24T11:47:13;12.52;;;6.70;;
81306;SDS011;70775;50.846;3.224;2023-08-24T11:49:39;9.68;;;6.50;;
81306;SDS011;70775;50.846;3.224;2023-08-24T11:52:05;10.38;;;6.90;;
81306;SDS011;70775;50.846;3.224;2023-08-24T11:54:34;11.02;;;7.05;;
81306;SDS011;70775;50.846;3.224;2023-08-24T11:57:05;9.15;;;6.45;;
81306;SDS011;70775;50.846;3.224;2023-08-24T11:59:31;11.25;;;7.30;;
81306;SDS011;70775;50.846;3.224;2023-08-24T12:01:57;8.38;;;6.18;;
81306;SDS011;70775;50.846;3.224;2023-08-24T12:04:23;10.20;;;6.55;;
81306;SDS011;70775;50.846;3.224;2023-08-24T12:06:49;8.68;;;6.70;;
81306;SDS011;70775;50.846;3.224;2023-08-24T12:09:15;9.35;;;6.50;;
81306;SDS011;70775;50.846;3.224;2023-08-24T12:11:41;9.93;;;7.07;;
81306;SDS011;70775;50.846;3.224;2023-08-24T12:14:07;8.75;;;6.30;;
81306;SDS011;70775;50.846;3.224;2023-08-24T12:16:41;11.07;;;6.32;;
81306;SDS011;70775;50.846;3.224;2023-08-24T12:19:07;11.93;;;7.00;;
81306;SDS011;70775;50.846;3.224;2023-08-24T12:21:33;10.55;;;6.50;;
81306;SDS011;70775;50.846;3.224;2023-08-24T12:26:28;9.63;;;6.07;;
81306;SDS011;70775;50.846;3.224;2023-08-24T12:28:55;9.57;;;6.57;;
81306;SDS011;70775;50.846;3.224;2023-08-24T12:31:28;10.77;;;5.95;;
81306;SDS011;70775;50.846;3.224;2023-08-24T12:34:04;9.85;;;6.22;;
81306;SDS011;70775;50.846;3.224;2023-08-24T12:36:36;9.95;;;6.18;;
81306;SDS011;70775;50.846;3.224;2023-08-24T12:39:03;9.32;;;6.32;;
81306;SDS011;70775;50.846;3.224;2023-08-24T12:41:30;10.38;;;6.95;;
81306;SDS011;70775;50.846;3.224;2023-08-24T12:43:56;8.55;;;5.85;;
81306;SDS011;70775;50.846;3.224;2023-08-24T12:46:21;9.85;;;5.60;;
81306;SDS011;70775;50.846;3.224;2023-08-24T12:48:48;7.93;;;5.25;;
81306;SDS011;70775;50.846;3.224;2023-08-24T12:51:15;7.57;;;5.38;;
81306;SDS011;70775;50.846;3.224;2023-08-24T12:53:41;9.30;;;5.05;;
81306;SDS011;70775;50.846;3.224;2023-08-24T12:56:06;7.40;;;5.43;;
81306;SDS011;70775;50.846;3.224;2023-08-24T12:58:32;8.05;;;5.18;;
81306;SDS011;70775;50.846;3.224;2023-08-24T13:00:58;7.10;;;5.13;;
81306;SDS011;70775;50.846;3.224;2023-08-24T13:03:24;8.30;;;5.45;;
81306;SDS011;70775;50.846;3.224;2023-08-24T13:05:50;8.90;;;5.00;;
81306;SDS011;70775;50.846;3.224;2023-08-24T13:08:15;10.80;;;5.13;;
81306;SDS011;70775;50.846;3.224;2023-08-24T13:10:41;7.88;;;4.60;;
81306;SDS011;70775;50.846;3.224;2023-08-24T13:13:07;7.00;;;4.95;;
81306;SDS011;70775;50.846;3.224;2023-08-24T13:15:33;8.45;;;5.03;;
81306;SDS011;70775;50.846;3.224;2023-08-24T13:17:58;6.80;;;4.78;;
81306;SDS011;70775;50.846;3.224;2023-08-24T13:20:24;8.88;;;5.15;;
81306;SDS011;70775;50.846;3.224;2023-08-24T13:22:53;6.40;;;4.43;;
81306;SDS011;70775;50.846;3.224;2023-08-24T13:25:18;6.93;;;4.40;;
81306;SDS011;70775;50.846;3.224;2023-08-24T13:27:44;8.38;;;5.15;;
81306;SDS011;70775;50.846;3.224;2023-08-24T13:30:10;6.45;;;4.30;;
81306;SDS011;70775;50.846;3.224;2023-08-24T13:32:36;7.00;;;4.20;;
81306;SDS011;70775;50.846;3.224;2023-08-24T13:35:02;7.22;;;4.68;;
81306;SDS011;70775;50.846;3.224;2023-08-24T13:37:28;7.85;;;4.18;;
81306;SDS011;70775;50.846;3.224;2023-08-24T13:39:54;6.78;;;4.05;;
81306;SDS011;70775;50.846;3.224;2023-08-24T13:42:19;5.93;;;3.85;;
81306;SDS011;70775;50.846;3.224;2023-08-24T13:44:45;6.35;;;3.95;;
81306;SDS011;70775;50.846;3.224;2023-08-24T13:47:12;5.70;;;3.70;;
81306;SDS011;70775;50.846;3.224;2023-08-24T13:49:37;6.10;;;4.18;;
81306;SDS011;70775;50.846;3.224;2023-08-24T13:52:03;5.20;;;3.50;;
81306;SDS011;70775;50.846;3.224;2023-08-24T13:54:29;5.95;;;4.03;;
81306;SDS011;70775;50.846;3.224;2023-08-24T13:56:55;8.07;;;4.07;;
81306;SDS011;70775;50.846;3.224;2023-08-24T13:59:21;7.20;;;3.88;;
81306;SDS011;70775;50.846;3.224;2023-08-24T14:01:47;6.68;;;3.53;;
81306;SDS011;70775;50.846;3.224;2023-08-24T14:04:13;5.55;;;3.67;;
81306;SDS011;70775;50.846;3.224;2023-08-24T14:06:38;8.25;;;4.28;;
81306;SDS011;70775;50.846;3.224;2023-08-24T14:09:04;7.57;;;4.07;;
81306;SDS011;70775;50.846;3.224;2023-08-24T14:11:30;7.43;;;4.20;;
81306;SDS011;70775;50.846;3.224;2023-08-24T14:13:56;7.57;;;3.70;;
81306;SDS011;70775;50.846;3.224;2023-08-24T14:16:23;6.65;;;4.10;;
81306;SDS011;70775;50.846;3.224;2023-08-24T14:18:49;5.97;;;3.63;;
81306;SDS011;70775;50.846;3.224;2023-08-24T14:21:15;7.35;;;4.43;;
81306;SDS011;70775;50.846;3.224;2023-08-24T14:23:41;6.93;;;4.05;;
81306;SDS011;70775;50.846;3.224;2023-08-24T14:26:07;7.45;;;4.00;;
81306;SDS011;70775;50.846;3.224;2023-08-24T14:31:22;6.93;;;3.80;;
81306;SDS011;70775;50.846;3.224;2023-08-24T14:33:52;7.72;;;3.25;;
81306;SDS011;70775;50.846;3.224;2023-08-24T14:36:21;8.75;;;3.47;;
81306;SDS011;70775;50.846;3.224;2023-08-24T14:38:47;7.97;;;3.22;;
81306;SDS011;70775;50.846;3.224;2023-08-24T14:41:14;7.80;;;3.15;;
81306;SDS011;70775;50.846;3.224;2023-08-24T14:43:40;4.65;;;2.97;;
81306;SDS011;70775;50.846;3.224;2023-08-24T14:46:07;5.10;;;3.20;;
81306;SDS011;70775;50.846;3.224;2023-08-24T14:48:33;6.20;;;3.22;;
81306;SDS011;70775;50.846;3.224;2023-08-24T14:50:59;6.75;;;2.90;;
81306;SDS011;70775;50.846;3.224;2023-08-24T14:53:25;7.93;;;3.08;;
81306;SDS011;70775;50.846;3.224;2023-08-24T14:55:54;9.82;;;3.60;;
81306;SDS011;70775;50.846;3.224;2023-08-24T14:58:21;4.85;;;3.25;;
81306;SDS011;70775;50.846;3.224;2023-08-24T15:00:47;5.30;;;3.03;;
81306;SDS011;70775;50.846;3.224;2023-08-24T15:03:17;3.78;;;2.67;;
81306;SDS011;70775;50.846;3.224;2023-08-24T15:05:44;4.63;;;3.03;;
81306;SDS011;70775;50.846;3.224;2023-08-24T15:08:11;5.65;;;2.70;;
81306;SDS011;70775;50.846;3.224;2023-08-24T15:10:38;5.70;;;2.50;;
81306;SDS011;70775;50.846;3.224;2023-08-24T15:13:04;3.47;;;2.58;;
81306;SDS011;70775;50.846;3.224;2023-08-24T15:15:30;5.13;;;2.60;;
81306;SDS011;70775;50.846;3.224;2023-08-24T15:17:56;8.13;;;2.80;;
81306;SDS011;70775;50.846;3.224;2023-08-24T15:20:22;5.15;;;2.45;;